sensor_id;sensor_type;location;lat;lon;timestamp;temperature;humidity
33943;DHT22;66763;47.856;17.462;2024-03-23T00:52:35;12.00;55.50
33943;DHT22;66763;47.856;17.462;2024-03-23T00:55:01;12.00;55.50
33943;DHT22;66763;47.856;17.462;2024-03-23T00:57:26;12.00;55.50
33943;DHT22;66763;47.856;17.462;2024-03-23T00:59:52;12.00;55.50
33943;DHT22;66763;47.856;17.462;2024-03-23T01:02:17;12.00;55.50
33943;DHT22;66763;47.856;17.462;2024-03-23T01:04:43;12.00;55.50
33943;DHT22;66763;47.856;17.462;2024-03-23T01:07:09;12.00;55.50
33943;DHT22;66763;47.856;17.462;2024-03-23T01:09:35;12.00;55.40
33943;DHT22;66763;47.856;17.462;2024-03-23T01:12:00;12.00;55.50
33943;DHT22;66763;47.856;17.462;2024-03-23T01:14:27;12.00;55.50
33943;DHT22;66763;47.856;17.462;2024-03-23T01:16:52;12.00;55.50
33943;DHT22;66763;47.856;17.462;2024-03-23T01:19:17;12.00;55.50
33943;DHT22;66763;47.856;17.462;2024-03-23T01:21:43;12.00;55.50
33943;DHT22;66763;47.856;17.462;2024-03-23T01:24:08;12.00;55.50
33943;DHT22;66763;47.856;17.462;2024-03-23T01:26:36;12.00;55.50
33943;DHT22;66763;47.856;17.462;2024-03-23T01:29:02;12.00;55.50
33943;DHT22;66763;47.856;17.462;2024-03-23T01:31:27;12.00;55.50
33943;DHT22;66763;47.856;17.462;2024-03-23T01:33:53;12.00;55.50
33943;DHT22;66763;47.856;17.462;2024-03-23T01:36:18;12.00;55.50
33943;DHT22;66763;47.856;17.462;2024-03-23T01:38:45;12.00;55.50
33943;DHT22;66763;47.856;17.462;2024-03-23T01:41:10;12.00;55.50
33943;DHT22;66763;47.856;17.462;2024-03-23T01:43:35;12.00;55.50
33943;DHT22;66763;47.856;17.462;2024-03-23T01:46:01;12.00;55.50
33943;DHT22;66763;47.856;17.462;2024-03-23T01:48:26;12.00;55.50
33943;DHT22;66763;47.856;17.462;2024-03-23T01:50:52;12.00;55.50
33943;DHT22;66763;47.856;17.462;2024-03-23T01:53:18;12.00;55.50
33943;DHT22;66763;47.856;17.462;2024-03-23T01:55:47;12.00;55.50
33943;DHT22;66763;47.856;17.462;2024-03-23T01:58:12;12.00;55.50
33943;DHT22;66763;47.856;17.462;2024-03-23T02:00:38;12.00;55.50
33943;DHT22;66763;47.856;17.462;2024-03-23T02:03:21;12.00;55.50
33943;DHT22;66763;47.856;17.462;2024-03-23T02:05:46;12.00;55.50
33943;DHT22;66763;47.856;17.462;2024-03-23T02:08:12;12.00;55.50
33943;DHT22;66763;47.856;17.462;2024-03-23T02:10:37;12.00;55.50
33943;DHT22;66763;47.856;17.462;2024-03-23T02:13:03;12.00;55.50
33943;DHT22;66763;47.856;17.462;2024-03-23T02:15:28;12.00;55.50
33943;DHT22;66763;47.856;17.462;2024-03-23T02:17:54;12.00;55.50
33943;DHT22;66763;47.856;17.462;2024-03-23T02:20:19;12.00;55.50
33943;DHT22;66763;47.856;17.462;2024-03-23T02:22:45;12.00;55.50
33943;DHT22;66763;47.856;17.462;2024-03-23T02:25:10;12.00;55.50
33943;DHT22;66763;47.856;17.462;2024-03-23T02:27:36;12.00;55.50
33943;DHT22;66763;47.856;17.462;2024-03-23T02:30:04;12.00;55.50
33943;DHT22;66763;47.856;17.462;2024-03-23T02:32:30;12.00;55.50
33943;DHT22;66763;47.856;17.462;2024-03-23T02:34:55;12.00;55.50
33943;DHT22;66763;47.856;17.462;2024-03-23T02:37:21;12.00;55.50
33943;DHT22;66763;47.856;17.462;2024-03-23T02:39:46;12.00;55.50
33943;DHT22;66763;47.856;17.462;2024-03-23T02:42:12;12.00;55.50
33943;DHT22;66763;47.856;17.462;2024-03-23T02:44:37;12.00;55.50
33943;DHT22;66763;47.856;17.462;2024-03-23T02:47:03;12.00;55.50
33943;DHT22;66763;47.856;17.462;2024-03-23T02:49:28;12.00;55.60
33943;DHT22;66763;47.856;17.462;2024-03-23T02:51:54;12.00;55.60
33943;DHT22;66763;47.856;17.462;2024-03-23T02:54:19;12.00;55.60
33943;DHT22;66763;47.856;17.462;2024-03-23T02:56:45;12.00;55.50
33943;DHT22;66763;47.856;17.462;2024-03-23T02:59:10;12.00;55.50
33943;DHT22;66763;47.856;17.462;2024-03-23T03:01:36;12.00;55.50
33943;DHT22;66763;47.856;17.462;2024-03-23T03:04:01;12.00;55.50
33943;DHT22;66763;47.856;17.462;2024-03-23T03:06:27;12.00;55.50
33943;DHT22;66763;47.856;17.462;2024-03-23T03:08:53;12.00;55.60
33943;DHT22;66763;47.856;17.462;2024-03-23T03:11:19;12.00;55.60
33943;DHT22;66763;47.856;17.462;2024-03-23T03:13:44;12.00;55.50
33943;DHT22;66763;47.856;17.462;2024-03-23T03:16:10;12.00;55.60
33943;DHT22;66763;47.856;17.462;2024-03-23T03:18:36;12.00;55.50
33943;DHT22;66763;47.856;17.462;2024-03-23T03:21:01;12.00;55.50
33943;DHT22;66763;47.856;17.462;2024-03-23T03:23:27;12.00;55.60
33943;DHT22;66763;47.856;17.462;2024-03-23T03:25:53;12.00;55.50
33943;DHT22;66763;47.856;17.462;2024-03-23T03:28:18;12.00;55.50
33943;DHT22;66763;47.856;17.462;2024-03-23T03:30:44;12.00;55.50
33943;DHT22;66763;47.856;17.462;2024-03-23T03:33:10;12.00;55.60
33943;DHT22;66763;47.856;17.462;2024-03-23T03:35:35;12.00;55.50
33943;DHT22;66763;47.856;17.462;2024-03-23T03:38:03;12.00;55.60
33943;DHT22;66763;47.856;17.462;2024-03-23T03:40:28;12.00;55.60
33943;DHT22;66763;47.856;17.462;2024-03-23T03:42:53;12.00;55.60
33943;DHT22;66763;47.856;17.462;2024-03-23T03:45:19;12.00;55.60
33943;DHT22;66763;47.856;17.462;2024-03-23T03:47:44;12.00;55.60
33943;DHT22;66763;47.856;17.462;2024-03-23T03:50:10;12.00;55.60
33943;DHT22;66763;47.856;17.462;2024-03-23T03:52:35;12.00;55.60
33943;DHT22;66763;47.856;17.462;2024-03-23T03:55:01;12.00;55.50
33943;DHT22;66763;47.856;17.462;2024-03-23T03:57:27;12.00;55.60
33943;DHT22;66763;47.856;17.462;2024-03-23T03:59:53;12.00;55.60
33943;DHT22;66763;47.856;17.462;2024-03-23T04:02:18;12.00;55.60
33943;DHT22;66763;47.856;17.462;2024-03-23T04:04:44;12.00;55.60
33943;DHT22;66763;47.856;17.462;2024-03-23T04:07:09;12.00;55.60
33943;DHT22;66763;47.856;17.462;2024-03-23T04:09:35;12.00;55.60
33943;DHT22;66763;47.856;17.462;2024-03-23T04:12:00;12.00;55.50
33943;DHT22;66763;47.856;17.462;2024-03-23T04:14:26;12.00;55.60
33943;DHT22;66763;47.856;17.462;2024-03-23T04:16:51;12.00;55.50
33943;DHT22;66763;47.856;17.462;2024-03-23T04:19:17;12.00;55.50
33943;DHT22;66763;47.856;17.462;2024-03-23T04:21:42;12.00;55.60
33943;DHT22;66763;47.856;17.462;2024-03-23T04:24:08;12.00;55.60
33943;DHT22;66763;47.856;17.462;2024-03-23T04:26:42;12.00;55.60
33943;DHT22;66763;47.856;17.462;2024-03-23T04:29:08;12.00;55.60
33943;DHT22;66763;47.856;17.462;2024-03-23T04:31:33;12.10;55.60
33943;DHT22;66763;47.856;17.462;2024-03-23T04:34:03;12.10;55.60
33943;DHT22;66763;47.856;17.462;2024-03-23T04:36:28;12.00;55.60
33943;DHT22;66763;47.856;17.462;2024-03-23T04:38:54;12.00;55.60
33943;DHT22;66763;47.856;17.462;2024-03-23T04:41:19;12.00;55.60
33943;DHT22;66763;47.856;17.462;2024-03-23T04:43:45;12.00;55.60
33943;DHT22;66763;47.856;17.462;2024-03-23T04:46:10;12.00;55.60
33943;DHT22;66763;47.856;17.462;2024-03-23T04:48:36;12.00;55.60
33943;DHT22;66763;47.856;17.462;2024-03-23T04:51:01;12.00;55.60
33943;DHT22;66763;47.856;17.462;2024-03-23T04:53:27;12.00;55.60
33943;DHT22;66763;47.856;17.462;2024-03-23T04:55:55;12.00;55.60
33943;DHT22;66763;47.856;17.462;2024-03-23T04:58:24;12.00;55.60
33943;DHT22;66763;47.856;17.462;2024-03-23T05:00:54;12.00;55.60
33943;DHT22;66763;47.856;17.462;2024-03-23T05:03:19;12.10;55.60
33943;DHT22;66763;47.856;17.462;2024-03-23T05:05:46;12.00;55.60
33943;DHT22;66763;47.856;17.462;2024-03-23T05:08:12;12.00;55.60
33943;DHT22;66763;47.856;17.462;2024-03-23T05:10:38;12.10;55.60
33943;DHT22;66763;47.856;17.462;2024-03-23T05:13:03;12.10;55.80
33943;DHT22;66763;47.856;17.462;2024-03-23T05:15:29;12.00;55.60
33943;DHT22;66763;47.856;17.462;2024-03-23T05:17:55;12.00;55.60
33943;DHT22;66763;47.856;17.462;2024-03-23T05:20:20;12.00;55.60
33943;DHT22;66763;47.856;17.462;2024-03-23T05:22:46;12.10;55.70
33943;DHT22;66763;47.856;17.462;2024-03-23T05:25:11;12.00;55.60
33943;DHT22;66763;47.856;17.462;2024-03-23T05:27:37;12.10;55.70
33943;DHT22;66763;47.856;17.462;2024-03-23T05:30:03;12.00;55.60
33943;DHT22;66763;47.856;17.462;2024-03-23T05:32:29;12.10;55.60
33943;DHT22;66763;47.856;17.462;2024-03-23T05:34:54;12.00;55.60
33943;DHT22;66763;47.856;17.462;2024-03-23T05:37:23;12.00;55.60
33943;DHT22;66763;47.856;17.462;2024-03-23T05:39:49;12.00;55.60
33943;DHT22;66763;47.856;17.462;2024-03-23T05:42:18;12.00;55.60
33943;DHT22;66763;47.856;17.462;2024-03-23T05:44:46;12.00;55.60
33943;DHT22;66763;47.856;17.462;2024-03-23T05:47:12;12.00;55.60
33943;DHT22;66763;47.856;17.462;2024-03-23T05:49:42;12.00;55.60
33943;DHT22;66763;47.856;17.462;2024-03-23T05:52:08;12.00;55.60
33943;DHT22;66763;47.856;17.462;2024-03-23T05:54:34;12.00;55.60
33943;DHT22;66763;47.856;17.462;2024-03-23T05:56:59;12.10;55.60
33943;DHT22;66763;47.856;17.462;2024-03-23T05:59:24;12.10;55.60
33943;DHT22;66763;47.856;17.462;2024-03-23T06:01:50;12.00;55.60
33943;DHT22;66763;47.856;17.462;2024-03-23T06:04:15;12.00;55.60
33943;DHT22;66763;47.856;17.462;2024-03-23T06:06:41;12.10;56.20
33943;DHT22;66763;47.856;17.462;2024-03-23T06:09:07;12.10;55.60
33943;DHT22;66763;47.856;17.462;2024-03-23T06:11:32;12.10;55.60
33943;DHT22;66763;47.856;17.462;2024-03-23T06:13:58;12.00;55.60
33943;DHT22;66763;47.856;17.462;2024-03-23T06:16:23;12.00;55.60
33943;DHT22;66763;47.856;17.462;2024-03-23T06:18:52;12.00;55.60
33943;DHT22;66763;47.856;17.462;2024-03-23T06:21:18;12.00;55.60
33943;DHT22;66763;47.856;17.462;2024-03-23T06:23:44;12.10;55.60
33943;DHT22;66763;47.856;17.462;2024-03-23T06:26:19;12.00;55.60
33943;DHT22;66763;47.856;17.462;2024-03-23T06:28:45;12.10;55.60
33943;DHT22;66763;47.856;17.462;2024-03-23T06:31:10;12.00;55.60
33943;DHT22;66763;47.856;17.462;2024-03-23T06:33:36;12.00;55.50
33943;DHT22;66763;47.856;17.462;2024-03-23T06:36:01;12.00;55.50
33943;DHT22;66763;47.856;17.462;2024-03-23T06:38:28;12.10;55.60
33943;DHT22;66763;47.856;17.462;2024-03-23T06:40:54;12.10;55.60
33943;DHT22;66763;47.856;17.462;2024-03-23T06:43:19;12.00;55.50
33943;DHT22;66763;47.856;17.462;2024-03-23T06:45:44;12.00;55.50
33943;DHT22;66763;47.856;17.462;2024-03-23T06:48:17;12.10;55.60
33943;DHT22;66763;47.856;17.462;2024-03-23T06:50:42;12.00;55.50
33943;DHT22;66763;47.856;17.462;2024-03-23T06:53:08;12.10;55.50
33943;DHT22;66763;47.856;17.462;2024-03-23T06:55:33;12.10;55.60
33943;DHT22;66763;47.856;17.462;2024-03-23T06:57:59;12.10;55.60
33943;DHT22;66763;47.856;17.462;2024-03-23T07:00:24;12.10;55.60
33943;DHT22;66763;47.856;17.462;2024-03-23T07:02:50;12.10;55.60
33943;DHT22;66763;47.856;17.462;2024-03-23T07:05:15;12.10;55.60
33943;DHT22;66763;47.856;17.462;2024-03-23T07:07:41;12.10;55.60
33943;DHT22;66763;47.856;17.462;2024-03-23T07:10:06;12.10;55.60
33943;DHT22;66763;47.856;17.462;2024-03-23T07:12:32;12.10;55.60
33943;DHT22;66763;47.856;17.462;2024-03-23T07:14:57;12.10;55.50
33943;DHT22;66763;47.856;17.462;2024-03-23T07:17:23;12.10;55.60
33943;DHT22;66763;47.856;17.462;2024-03-23T07:19:48;12.00;55.50
33943;DHT22;66763;47.856;17.462;2024-03-23T07:22:14;12.10;55.60
33943;DHT22;66763;47.856;17.462;2024-03-23T07:24:40;12.10;55.60
33943;DHT22;66763;47.856;17.462;2024-03-23T07:27:05;12.10;55.60
33943;DHT22;66763;47.856;17.462;2024-03-23T07:29:38;12.10;55.60
33943;DHT22;66763;47.856;17.462;2024-03-23T07:32:03;12.10;55.50
33943;DHT22;66763;47.856;17.462;2024-03-23T07:34:29;12.10;55.50
33943;DHT22;66763;47.856;17.462;2024-03-23T07:36:54;12.10;55.50
33943;DHT22;66763;47.856;17.462;2024-03-23T07:39:20;12.10;55.50
33943;DHT22;66763;47.856;17.462;2024-03-23T07:41:45;12.10;55.50
33943;DHT22;66763;47.856;17.462;2024-03-23T07:44:11;12.10;55.50
33943;DHT22;66763;47.856;17.462;2024-03-23T07:46:36;12.10;55.50
33943;DHT22;66763;47.856;17.462;2024-03-23T07:49:03;12.10;55.50
33943;DHT22;66763;47.856;17.462;2024-03-23T07:51:29;12.10;55.50
33943;DHT22;66763;47.856;17.462;2024-03-23T07:53:54;12.10;55.50
33943;DHT22;66763;47.856;17.462;2024-03-23T07:56:20;12.10;55.50
33943;DHT22;66763;47.856;17.462;2024-03-23T07:58:46;12.10;55.50
33943;DHT22;66763;47.856;17.462;2024-03-23T08:01:14;12.10;55.50
33943;DHT22;66763;47.856;17.462;2024-03-23T08:03:40;12.10;55.50
33943;DHT22;66763;47.856;17.462;2024-03-23T08:06:12;12.10;55.50
33943;DHT22;66763;47.856;17.462;2024-03-23T08:08:39;12.10;55.50
33943;DHT22;66763;47.856;17.462;2024-03-23T08:11:05;12.10;55.50
33943;DHT22;66763;47.856;17.462;2024-03-23T08:13:30;12.10;55.50
33943;DHT22;66763;47.856;17.462;2024-03-23T08:16:00;12.10;55.50
33943;DHT22;66763;47.856;17.462;2024-03-23T08:18:26;12.10;55.50
33943;DHT22;66763;47.856;17.462;2024-03-23T08:20:55;12.10;55.50
33943;DHT22;66763;47.856;17.462;2024-03-23T08:23:21;12.10;55.40
33943;DHT22;66763;47.856;17.462;2024-03-23T08:25:46;12.20;55.50
33943;DHT22;66763;47.856;17.462;2024-03-23T08:28:12;12.10;55.40
33943;DHT22;66763;47.856;17.462;2024-03-23T08:30:38;12.10;55.40
33943;DHT22;66763;47.856;17.462;2024-03-23T08:33:03;12.20;55.50
33943;DHT22;66763;47.856;17.462;2024-03-23T08:35:29;12.20;55.50
33943;DHT22;66763;47.856;17.462;2024-03-23T08:37:54;12.10;55.40
33943;DHT22;66763;47.856;17.462;2024-03-23T08:40:20;12.20;55.40
33943;DHT22;66763;47.856;17.462;2024-03-23T08:42:45;12.10;55.40
33943;DHT22;66763;47.856;17.462;2024-03-23T08:45:11;12.20;55.50
33943;DHT22;66763;47.856;17.462;2024-03-23T08:47:36;12.20;55.50
33943;DHT22;66763;47.856;17.462;2024-03-23T08:50:02;12.20;55.50
33943;DHT22;66763;47.856;17.462;2024-03-23T08:52:27;12.20;56.10
33943;DHT22;66763;47.856;17.462;2024-03-23T08:54:55;12.10;55.40
33943;DHT22;66763;47.856;17.462;2024-03-23T08:57:22;12.20;55.40
33943;DHT22;66763;47.856;17.462;2024-03-23T08:59:47;12.10;55.40
33943;DHT22;66763;47.856;17.462;2024-03-23T09:02:13;12.20;55.40
33943;DHT22;66763;47.856;17.462;2024-03-23T09:04:38;12.20;55.40
33943;DHT22;66763;47.856;17.462;2024-03-23T09:07:03;12.10;55.40
33943;DHT22;66763;47.856;17.462;2024-03-23T09:09:30;12.20;55.40
33943;DHT22;66763;47.856;17.462;2024-03-23T09:11:55;12.20;55.40
33943;DHT22;66763;47.856;17.462;2024-03-23T09:14:21;12.20;55.40
33943;DHT22;66763;47.856;17.462;2024-03-23T09:16:49;12.20;55.40
33943;DHT22;66763;47.856;17.462;2024-03-23T09:19:14;12.20;55.40
33943;DHT22;66763;47.856;17.462;2024-03-23T09:21:40;12.20;55.40
33943;DHT22;66763;47.856;17.462;2024-03-23T09:24:05;12.20;55.40
33943;DHT22;66763;47.856;17.462;2024-03-23T09:26:31;12.20;55.40
33943;DHT22;66763;47.856;17.462;2024-03-23T09:28:57;12.20;55.40
33943;DHT22;66763;47.856;17.462;2024-03-23T09:31:22;12.20;55.40
33943;DHT22;66763;47.856;17.462;2024-03-23T09:33:48;12.20;55.40
33943;DHT22;66763;47.856;17.462;2024-03-23T09:36:13;12.20;55.40
33943;DHT22;66763;47.856;17.462;2024-03-23T09:38:40;12.20;55.40
33943;DHT22;66763;47.856;17.462;2024-03-23T09:41:09;12.20;55.40
33943;DHT22;66763;47.856;17.462;2024-03-23T09:43:35;12.20;55.40
33943;DHT22;66763;47.856;17.462;2024-03-23T09:46:01;12.20;55.40
33943;DHT22;66763;47.856;17.462;2024-03-23T09:48:27;12.20;55.40
33943;DHT22;66763;47.856;17.462;2024-03-23T09:50:53;12.20;55.40
33943;DHT22;66763;47.856;17.462;2024-03-23T09:53:18;12.20;55.40
33943;DHT22;66763;47.856;17.462;2024-03-23T09:55:44;12.20;55.40
33943;DHT22;66763;47.856;17.462;2024-03-23T09:58:14;12.20;55.40
33943;DHT22;66763;47.856;17.462;2024-03-23T10:00:39;12.20;55.40
33943;DHT22;66763;47.856;17.462;2024-03-23T10:03:05;12.20;55.40
33943;DHT22;66763;47.856;17.462;2024-03-23T10:05:32;12.20;55.40
33943;DHT22;66763;47.856;17.462;2024-03-23T10:08:00;12.20;56.00
33943;DHT22;66763;47.856;17.462;2024-03-23T10:10:25;12.20;55.40
33943;DHT22;66763;47.856;17.462;2024-03-23T10:12:51;12.20;55.40
33943;DHT22;66763;47.856;17.462;2024-03-23T10:15:20;12.20;55.40
33943;DHT22;66763;47.856;17.462;2024-03-23T10:17:46;12.20;55.40
33943;DHT22;66763;47.856;17.462;2024-03-23T10:20:11;12.20;55.40
33943;DHT22;66763;47.856;17.462;2024-03-23T10:22:37;12.20;55.40
33943;DHT22;66763;47.856;17.462;2024-03-23T10:25:07;12.20;55.40
33943;DHT22;66763;47.856;17.462;2024-03-23T10:27:33;12.20;55.40
33943;DHT22;66763;47.856;17.462;2024-03-23T10:30:07;12.20;55.40
33943;DHT22;66763;47.856;17.462;2024-03-23T10:32:32;12.20;55.40
33943;DHT22;66763;47.856;17.462;2024-03-23T10:35:13;12.20;55.40
33943;DHT22;66763;47.856;17.462;2024-03-23T10:37:39;12.20;55.40
33943;DHT22;66763;47.856;17.462;2024-03-23T10:40:04;12.20;55.40
33943;DHT22;66763;47.856;17.462;2024-03-23T10:42:30;12.20;55.40
33943;DHT22;66763;47.856;17.462;2024-03-23T10:44:58;12.20;55.40
33943;DHT22;66763;47.856;17.462;2024-03-23T10:47:24;12.20;55.40
33943;DHT22;66763;47.856;17.462;2024-03-23T10:49:51;12.20;55.40
33943;DHT22;66763;47.856;17.462;2024-03-23T10:52:16;12.20;55.40
33943;DHT22;66763;47.856;17.462;2024-03-23T10:54:42;12.20;56.00
33943;DHT22;66763;47.856;17.462;2024-03-23T10:57:10;12.20;55.40
33943;DHT22;66763;47.856;17.462;2024-03-23T10:59:39;12.20;55.40
33943;DHT22;66763;47.856;17.462;2024-03-23T11:02:05;12.20;55.40
33943;DHT22;66763;47.856;17.462;2024-03-23T11:04:34;12.20;55.40
33943;DHT22;66763;47.856;17.462;2024-03-23T11:07:00;12.20;55.40
33943;DHT22;66763;47.856;17.462;2024-03-23T11:14:44;12.20;55.40
33943;DHT22;66763;47.856;17.462;2024-03-23T11:17:10;12.20;55.50
33943;DHT22;66763;47.856;17.462;2024-03-23T11:19:36;12.20;55.50
33943;DHT22;66763;47.856;17.462;2024-03-23T11:22:02;12.30;55.50
33943;DHT22;66763;47.856;17.462;2024-03-23T11:24:28;12.20;55.40
33943;DHT22;66763;47.856;17.462;2024-03-23T11:26:54;12.20;55.50
33943;DHT22;66763;47.856;17.462;2024-03-23T11:29:19;12.30;55.50
33943;DHT22;66763;47.856;17.462;2024-03-23T11:31:45;12.20;55.40
33943;DHT22;66763;47.856;17.462;2024-03-23T11:34:11;12.20;55.40
33943;DHT22;66763;47.856;17.462;2024-03-23T11:36:36;12.20;55.40
33943;DHT22;66763;47.856;17.462;2024-03-23T11:39:11;12.30;55.40
33943;DHT22;66763;47.856;17.462;2024-03-23T11:41:45;12.20;55.40
33943;DHT22;66763;47.856;17.462;2024-03-23T11:46:42;12.20;55.40
33943;DHT22;66763;47.856;17.462;2024-03-23T11:49:19;12.30;55.50
33943;DHT22;66763;47.856;17.462;2024-03-23T11:51:44;12.20;55.40
33943;DHT22;66763;47.856;17.462;2024-03-23T11:54:10;12.20;55.40
33943;DHT22;66763;47.856;17.462;2024-03-23T11:56:35;12.30;55.40
33943;DHT22;66763;47.856;17.462;2024-03-23T11:59:00;12.20;55.40
33943;DHT22;66763;47.856;17.462;2024-03-23T12:01:26;12.30;55.40
33943;DHT22;66763;47.856;17.462;2024-03-23T12:03:51;12.30;55.40
33943;DHT22;66763;47.856;17.462;2024-03-23T12:06:19;12.20;55.40
33943;DHT22;66763;47.856;17.462;2024-03-23T12:08:45;12.20;55.40
33943;DHT22;66763;47.856;17.462;2024-03-23T12:11:11;12.20;55.40
33943;DHT22;66763;47.856;17.462;2024-03-23T12:13:37;12.30;55.40
33943;DHT22;66763;47.856;17.462;2024-03-23T12:18:38;12.30;55.40
33943;DHT22;66763;47.856;17.462;2024-03-23T12:21:04;12.30;55.40
33943;DHT22;66763;47.856;17.462;2024-03-23T12:23:29;12.30;55.40
33943;DHT22;66763;47.856;17.462;2024-03-23T12:25:55;12.30;55.40
33943;DHT22;66763;47.856;17.462;2024-03-23T12:28:20;12.30;55.40
33943;DHT22;66763;47.856;17.462;2024-03-23T12:30:46;12.20;55.40
33943;DHT22;66763;47.856;17.462;2024-03-23T12:33:11;12.30;55.40
33943;DHT22;66763;47.856;17.462;2024-03-23T12:35:37;12.30;55.40
33943;DHT22;66763;47.856;17.462;2024-03-23T12:38:02;12.30;55.40
33943;DHT22;66763;47.856;17.462;2024-03-23T12:40:28;12.30;55.40
33943;DHT22;66763;47.856;17.462;2024-03-23T12:42:53;12.30;55.40
33943;DHT22;66763;47.856;17.462;2024-03-23T12:45:19;12.30;55.40
33943;DHT22;66763;47.856;17.462;2024-03-23T12:47:44;12.30;55.50
33943;DHT22;66763;47.856;17.462;2024-03-23T12:50:10;12.30;55.40
33943;DHT22;66763;47.856;17.462;2024-03-23T12:52:36;12.30;55.50
33943;DHT22;66763;47.856;17.462;2024-03-23T12:55:02;12.30;55.40
33943;DHT22;66763;47.856;17.462;2024-03-23T12:57:31;12.30;55.40
33943;DHT22;66763;47.856;17.462;2024-03-23T12:59:57;12.30;55.50
33943;DHT22;66763;47.856;17.462;2024-03-23T13:02:23;12.30;55.50
33943;DHT22;66763;47.856;17.462;2024-03-23T13:04:52;12.30;55.50
33943;DHT22;66763;47.856;17.462;2024-03-23T13:07:18;12.30;55.50
33943;DHT22;66763;47.856;17.462;2024-03-23T13:09:43;12.30;55.50
33943;DHT22;66763;47.856;17.462;2024-03-23T13:12:09;12.30;55.50
33943;DHT22;66763;47.856;17.462;2024-03-23T13:14:34;12.30;55.50
33943;DHT22;66763;47.856;17.462;2024-03-23T13:17:00;12.30;55.50
33943;DHT22;66763;47.856;17.462;2024-03-23T13:19:27;12.30;55.60
33943;DHT22;66763;47.856;17.462;2024-03-23T13:21:56;12.30;55.60
33943;DHT22;66763;47.856;17.462;2024-03-23T13:24:24;12.30;55.60
33943;DHT22;66763;47.856;17.462;2024-03-23T13:26:53;12.30;55.60
33943;DHT22;66763;47.856;17.462;2024-03-23T13:29:19;12.30;55.60
33943;DHT22;66763;47.856;17.462;2024-03-23T13:31:45;12.30;55.70
33943;DHT22;66763;47.856;17.462;2024-03-23T13:34:10;12.30;55.60
33943;DHT22;66763;47.856;17.462;2024-03-23T13:36:36;12.30;55.70
33943;DHT22;66763;47.856;17.462;2024-03-23T13:39:02;12.30;55.60
33943;DHT22;66763;47.856;17.462;2024-03-23T13:41:32;12.30;55.70
33943;DHT22;66763;47.856;17.462;2024-03-23T13:43:58;12.30;55.70
33943;DHT22;66763;47.856;17.462;2024-03-23T13:46:23;12.30;55.70
33943;DHT22;66763;47.856;17.462;2024-03-23T13:48:49;12.30;55.70
33943;DHT22;66763;47.856;17.462;2024-03-23T13:51:14;12.30;55.70
33943;DHT22;66763;47.856;17.462;2024-03-23T13:53:40;12.30;55.70
33943;DHT22;66763;47.856;17.462;2024-03-23T13:56:05;12.30;55.80
33943;DHT22;66763;47.856;17.462;2024-03-23T13:58:31;12.30;55.70
33943;DHT22;66763;47.856;17.462;2024-03-23T14:00:56;12.40;55.80
33943;DHT22;66763;47.856;17.462;2024-03-23T14:03:23;12.30;55.70
33943;DHT22;66763;47.856;17.462;2024-03-23T14:05:48;12.30;55.80
33943;DHT22;66763;47.856;17.462;2024-03-23T14:08:14;12.30;55.80
33943;DHT22;66763;47.856;17.462;2024-03-23T14:10:40;12.30;55.80
33943;DHT22;66763;47.856;17.462;2024-03-23T14:13:06;12.30;55.80
33943;DHT22;66763;47.856;17.462;2024-03-23T14:15:31;12.30;55.80
33943;DHT22;66763;47.856;17.462;2024-03-23T14:17:57;12.30;55.80
33943;DHT22;66763;47.856;17.462;2024-03-23T14:20:23;12.30;55.80
33943;DHT22;66763;47.856;17.462;2024-03-23T14:22:49;12.30;55.80
33943;DHT22;66763;47.856;17.462;2024-03-23T14:25:15;12.30;55.80
33943;DHT22;66763;47.856;17.462;2024-03-23T14:27:40;12.30;55.80
33943;DHT22;66763;47.856;17.462;2024-03-23T14:30:06;12.30;55.70
33943;DHT22;66763;47.856;17.462;2024-03-23T14:32:31;12.40;55.80
33943;DHT22;66763;47.856;17.462;2024-03-23T14:35:02;12.30;55.80
33943;DHT22;66763;47.856;17.462;2024-03-23T14:37:27;12.30;55.80
33943;DHT22;66763;47.856;17.462;2024-03-23T14:39:55;12.30;55.80
33943;DHT22;66763;47.856;17.462;2024-03-23T14:42:20;12.40;55.80
33943;DHT22;66763;47.856;17.462;2024-03-23T14:44:46;12.40;55.80
33943;DHT22;66763;47.856;17.462;2024-03-23T14:47:12;12.30;55.70
33943;DHT22;66763;47.856;17.462;2024-03-23T14:49:38;12.40;55.70
33943;DHT22;66763;47.856;17.462;2024-03-23T14:52:03;12.30;55.70
33943;DHT22;66763;47.856;17.462;2024-03-23T14:54:29;12.40;55.70
33943;DHT22;66763;47.856;17.462;2024-03-23T14:56:54;12.40;55.70
33943;DHT22;66763;47.856;17.462;2024-03-23T14:59:23;12.30;55.70
33943;DHT22;66763;47.856;17.462;2024-03-23T15:01:49;12.30;55.70
33943;DHT22;66763;47.856;17.462;2024-03-23T15:04:14;12.30;55.60
33943;DHT22;66763;47.856;17.462;2024-03-23T15:06:40;12.30;55.60
33943;DHT22;66763;47.856;17.462;2024-03-23T15:09:05;12.40;55.70
33943;DHT22;66763;47.856;17.462;2024-03-23T15:11:37;12.30;55.70
33943;DHT22;66763;47.856;17.462;2024-03-23T15:14:02;12.30;55.60
33943;DHT22;66763;47.856;17.462;2024-03-23T15:16:28;12.40;55.70
33943;DHT22;66763;47.856;17.462;2024-03-23T15:18:53;12.40;55.60
33943;DHT22;66763;47.856;17.462;2024-03-23T15:21:18;12.30;55.60
33943;DHT22;66763;47.856;17.462;2024-03-23T15:23:47;12.30;55.60
33943;DHT22;66763;47.856;17.462;2024-03-23T15:26:13;12.30;55.60
33943;DHT22;66763;47.856;17.462;2024-03-23T15:28:38;12.30;55.70
33943;DHT22;66763;47.856;17.462;2024-03-23T15:31:07;12.40;55.70
33943;DHT22;66763;47.856;17.462;2024-03-23T15:33:33;12.30;55.60
33943;DHT22;66763;47.856;17.462;2024-03-23T15:35:59;12.30;55.70
33943;DHT22;66763;47.856;17.462;2024-03-23T15:38:25;12.40;55.70
33943;DHT22;66763;47.856;17.462;2024-03-23T15:40:51;12.30;55.60
33943;DHT22;66763;47.856;17.462;2024-03-23T15:43:16;12.40;55.70
33943;DHT22;66763;47.856;17.462;2024-03-23T15:45:42;12.40;55.60
33943;DHT22;66763;47.856;17.462;2024-03-23T15:48:07;12.40;55.70
33943;DHT22;66763;47.856;17.462;2024-03-23T15:50:33;12.30;55.60
33943;DHT22;66763;47.856;17.462;2024-03-23T15:52:58;12.30;55.60
33943;DHT22;66763;47.856;17.462;2024-03-23T15:55:24;12.40;55.70
33943;DHT22;66763;47.856;17.462;2024-03-23T15:57:49;12.30;55.70
33943;DHT22;66763;47.856;17.462;2024-03-23T16:00:15;12.30;55.70
33943;DHT22;66763;47.856;17.462;2024-03-23T16:02:41;12.30;55.60
33943;DHT22;66763;47.856;17.462;2024-03-23T16:05:07;12.40;55.70
33943;DHT22;66763;47.856;17.462;2024-03-23T16:07:36;12.30;55.60
33943;DHT22;66763;47.856;17.462;2024-03-23T16:10:02;12.30;55.60